Time;durP1;ratioP1;P1;durP2;ratioP2;P2;SDS_P1;SDS_P2;PMS_P1;PMS_P2;Temp;Humidity;BMP_temperature;BMP_pressure;BME280_temperature;BME280_humidity;BME280_pressure;Samples;Min_cycle;Max_cycle;Signal;HPM_P1;HPM_P2
2022/04/09 00:01:54;;;;;;;21.07;4.93;;;4.90;99.90;;;;;;4989915;28;20249;-70
2022/04/09 00:04:21;;;;;;;21.20;4.90;;;4.90;99.90;;;;;;4988381;28;20215;-68
2022/04/09 00:06:48;;;;;;;18.73;5.20;;;4.80;99.90;;;;;;4985503;28;20220;-70
2022/04/09 00:09:15;;;;;;;21.37;5.33;;;4.80;99.90;;;;;;4992663;28;20218;-70
2022/04/09 00:11:42;;;;;;;15.53;4.50;;;4.70;99.90;;;;;;5039503;23;20238;-76
2022/04/09 00:14:09;;;;;;;14.50;4.47;;;4.70;99.90;;;;;;5020853;28;20214;-77
2022/04/09 00:16:38;;;;;;;15.67;4.60;;;4.70;99.90;;;;;;5015874;28;20215;-76
2022/04/09 00:19:05;;;;;;;14.37;4.27;;;4.70;99.90;;;;;;5024736;28;20244;-76
2022/04/09 00:21:35;;;;;;;13.90;3.97;;;4.60;99.90;;;;;;5026555;28;20307;-76
2022/04/09 00:24:02;;;;;;;17.50;4.40;;;4.60;99.90;;;;;;5024884;28;20202;-77
2022/04/09 00:26:29;;;;;;;17.07;4.77;;;4.70;99.90;;;;;;5019425;28;20220;-76
2022/04/09 00:28:55;;;;;;;18.63;4.63;;;4.60;99.90;;;;;;5033888;28;20202;-76
2022/04/09 00:31:22;;;;;;;18.67;5.27;;;4.50;99.90;;;;;;5042245;28;20368;-76
2022/04/09 00:33:51;;;;;;;17.40;5.37;;;4.50;99.90;;;;;;5027892;28;20692;-76
2022/04/09 00:36:18;;;;;;;12.07;3.87;;;4.40;99.90;;;;;;5026488;28;20198;-76
2022/04/09 00:38:45;;;;;;;13.03;4.20;;;4.40;99.90;;;;;;5028356;28;20206;-77
2022/04/09 00:41:13;;;;;;;13.50;4.30;;;4.40;99.90;;;;;;5025829;28;20690;-77
2022/04/09 00:43:41;;;;;;;18.37;4.70;;;4.20;99.90;;;;;;5028041;28;20218;-77
2022/04/09 00:46:09;;;;;;;16.97;4.63;;;4.30;99.90;;;;;;5026003;28;20644;-77
2022/04/09 00:48:38;;;;;;;15.83;4.73;;;4.20;99.90;;;;;;5028202;28;20233;-77
2022/04/09 00:51:06;;;;;;;14.40;4.40;;;4.20;99.90;;;;;;5010788;28;20710;-77
2022/04/09 00:53:36;;;;;;;14.73;5.20;;;4.20;99.90;;;;;;5014999;28;20197;-77
2022/04/09 00:56:15;;;;;;;19.17;5.23;;;4.30;99.90;;;;;;5026101;28;20723;-77
2022/04/09 00:58:46;;;;;;;14.43;5.13;;;4.20;99.90;;;;;;5029606;28;20213;-77
2022/04/09 01:01:34;;;;;;;10.63;4.17;;;3.80;99.90;;;;;;5125913;27;20497;-76
2022/04/09 01:04:05;;;;;;;12.63;4.17;;;4.20;99.90;;;;;;5103641;28;20202;-76
2022/04/09 01:06:33;;;;;;;9.63;4.50;;;4.20;99.90;;;;;;5102651;28;20586;-76
2022/04/09 01:09:00;;;;;;;15.27;4.70;;;4.10;99.90;;;;;;5084145;28;20484;-77
2022/04/09 01:11:27;;;;;;;10.47;4.23;;;4.20;99.90;;;;;;5094102;28;20306;-77
2022/04/09 01:13:54;;;;;;;20.33;5.00;;;4.20;99.90;;;;;;5115571;27;20770;-77
2022/04/09 01:16:22;;;;;;;13.97;5.20;;;4.20;99.90;;;;;;5115651;27;20537;-77
2022/04/09 01:18:51;;;;;;;15.97;4.43;;;4.10;99.90;;;;;;5127433;27;20202;-77
2022/04/09 01:21:18;;;;;;;16.53;4.40;;;4.20;99.90;;;;;;5125995;27;20246;-77
2022/04/09 01:23:46;;;;;;;13.97;4.50;;;4.10;99.90;;;;;;5104338;28;20208;-77
2022/04/09 01:26:15;;;;;;;11.53;4.67;;;4.20;99.90;;;;;;5095990;28;20668;-78
2022/04/09 01:28:44;;;;;;;14.27;4.47;;;4.20;99.90;;;;;;5103336;28;20207;-78
2022/04/09 01:31:12;;;;;;;12.33;4.63;;;4.30;99.90;;;;;;5096243;28;20230;-76
2022/04/09 01:33:39;;;;;;;18.03;4.57;;;4.10;99.90;;;;;;5092210;28;20211;-77
2022/04/09 01:36:06;;;;;;;15.80;4.40;;;4.20;99.90;;;;;;5098254;28;20221;-76
2022/04/09 01:38:34;;;;;;;18.33;4.87;;;4.10;99.90;;;;;;5108144;28;20518;-76
2022/04/09 01:41:03;;;;;;;10.10;4.00;;;4.10;99.90;;;;;;5106272;28;20270;-76
2022/04/09 01:43:34;;;;;;;9.30;4.47;;;4.10;99.90;;;;;;5103420;28;20209;-76
2022/04/09 01:46:01;;;;;;;14.60;5.07;;;4.10;99.90;;;;;;5104125;28;20242;-76
2022/04/09 01:48:28;;;;;;;8.40;4.10;;;4.10;99.90;;;;;;5088330;28;20208;-76
2022/04/09 01:50:55;;;;;;;17.77;5.13;;;4.10;99.90;;;;;;5094441;28;20227;-76
2022/04/09 01:53:22;;;;;;;13.23;4.33;;;4.10;99.90;;;;;;5103063;27;20274;-76
2022/04/09 01:55:50;;;;;;;13.40;4.57;;;4.20;99.90;;;;;;5091100;28;20530;-76
2022/04/09 01:58:19;;;;;;;12.83;4.10;;;4.20;99.90;;;;;;5089725;28;20221;-76
2022/04/09 02:00:48;;;;;;;10.70;3.57;;;4.20;99.90;;;;;;5099982;28;20216;-76
2022/04/09 02:03:15;;;;;;;18.50;4.40;;;4.30;99.90;;;;;;5092552;28;20192;-76
2022/04/09 02:05:43;;;;;;;16.83;4.93;;;4.20;99.90;;;;;;5081344;28;20200;-76
2022/04/09 02:08:11;;;;;;;13.77;3.93;;;4.30;99.90;;;;;;5081518;28;20292;-76
2022/04/09 02:10:38;;;;;;;9.90;3.40;;;4.30;99.90;;;;;;5081606;28;20228;-76
2022/04/09 02:13:11;;;;;;;9.90;4.03;;;4.30;99.90;;;;;;5067899;28;20652;-75
2022/04/09 02:15:40;;;;;;;17.27;5.20;;;4.40;99.90;;;;;;5083664;28;20200;-76
2022/04/09 02:18:07;;;;;;;16.33;4.70;;;4.20;99.90;;;;;;5088303;28;20216;-75
2022/04/09 02:20:35;;;;;;;15.13;5.33;;;4.40;99.90;;;;;;5090285;28;20567;-76
2022/04/09 02:23:01;;;;;;;13.17;3.93;;;4.40;99.90;;;;;;5088481;28;20212;-77
2022/04/09 02:25:28;;;;;;;19.17;4.50;;;4.50;99.90;;;;;;5081715;28;20208;-77
2022/04/09 02:27:56;;;;;;;13.43;4.37;;;4.50;99.90;;;;;;5089396;28;20459;-76
2022/04/09 02:30:25;;;;;;;16.73;4.40;;;4.50;99.90;;;;;;5088737;28;20260;-77
2022/04/09 02:33:05;;;;;;;11.13;3.50;;;4.50;99.90;;;;;;5081719;28;20706;-76
2022/04/09 02:35:37;;;;;;;11.97;4.20;;;4.50;99.90;;;;;;5068692;28;20209;-76
2022/04/09 02:38:07;;;;;;;11.27;4.10;;;4.50;99.90;;;;;;5069444;28;20250;-76
2022/04/09 02:40:34;;;;;;;14.83;4.80;;;4.50;99.90;;;;;;5074208;28;20289;-77
2022/04/09 02:43:01;;;;;;;17.87;5.07;;;5.50;99.90;;;;;;5089135;28;20520;-77
2022/04/09 02:45:28;;;;;;;8.73;3.67;;;4.40;99.90;;;;;;5089388;28;20207;-77
2022/04/09 02:47:56;;;;;;;12.77;4.07;;;4.50;99.90;;;;;;5088425;28;20204;-77
2022/04/09 02:50:28;;;;;;;12.83;4.33;;;4.60;99.90;;;;;;5087846;28;20704;-77
2022/04/09 02:52:55;;;;;;;21.03;5.47;;;4.40;99.90;;;;;;5087738;28;20251;-77
2022/04/09 02:55:24;;;;;;;15.10;4.80;;;4.40;99.90;;;;;;5082912;28;20569;-77
2022/04/09 02:57:52;;;;;;;11.03;4.00;;;4.40;99.90;;;;;;5081455;28;20268;-77
2022/04/09 03:00:22;;;;;;;11.00;4.87;;;4.40;99.90;;;;;;5071716;28;20230;-77
2022/04/09 03:02:50;;;;;;;16.63;4.80;;;4.40;99.90;;;;;;5076001;28;20249;-78
2022/04/09 03:05:39;;;;;;;15.87;4.57;;;4.50;99.90;;;;;;5079454;28;20215;-77
2022/04/09 03:08:08;;;;;;;19.63;4.73;;;4.50;99.90;;;;;;5096228;28;20732;-77
2022/04/09 03:10:34;;;;;;;19.47;4.70;;;4.50;99.90;;;;;;5088295;28;20260;-77
2022/04/09 03:13:04;;;;;;;19.67;4.97;;;4.50;99.90;;;;;;5066346;28;20524;-77
2022/04/09 03:15:31;;;;;;;14.00;4.63;;;4.50;99.90;;;;;;5080518;28;20205;-78
2022/04/09 03:17:59;;;;;;;16.70;4.60;;;4.60;99.90;;;;;;5086446;28;20205;-77
2022/04/09 03:20:29;;;;;;;17.73;4.63;;;4.60;99.90;;;;;;5087894;28;20326;-77
2022/04/09 03:22:57;;;;;;;13.00;4.40;;;3.90;99.90;;;;;;5085678;28;20526;-77
2022/04/09 03:25:33;;;;;;;11.93;4.13;;;5.00;99.90;;;;;;5084314;28;20239;-77
2022/04/09 03:28:00;;;;;;;13.87;3.97;;;4.60;99.90;;;;;;5092107;28;20578;-77
2022/04/09 03:30:28;;;;;;;11.73;4.20;;;4.60;99.90;;;;;;5086858;28;20229;-77
2022/04/09 03:32:57;;;;;;;20.37;4.23;;;4.40;99.90;;;;;;5077939;28;20632;-77
2022/04/09 03:35:29;;;;;;;10.73;4.63;;;4.80;99.90;;;;;;5094685;28;20211;-77
2022/04/09 03:37:58;;;;;;;13.67;4.63;;;4.70;99.90;;;;;;5095110;28;20279;-79
2022/04/09 03:40:36;;;;;;;12.07;4.17;;;4.80;99.90;;;;;;5098222;28;20216;-77
2022/04/09 03:43:04;;;;;;;16.43;4.13;;;4.90;99.90;;;;;;5097114;28;20204;-78
2022/04/09 03:45:31;;;;;;;20.53;4.80;;;4.90;99.90;;;;;;5081384;28;20226;-77
2022/04/09 03:48:02;;;;;;;14.47;4.27;;;5.00;99.90;;;;;;5079316;28;20206;-78
2022/04/09 03:50:31;;;;;;;14.43;3.80;;;5.10;99.90;;;;;;5079430;28;20311;-78
2022/04/09 03:53:00;;;;;;;16.63;4.53;;;4.90;99.90;;;;;;5077762;28;20299;-78
2022/04/09 03:55:28;;;;;;;17.73;4.13;;;5.10;99.90;;;;;;5080087;28;20275;-77
2022/04/09 03:57:56;;;;;;;15.20;4.40;;;5.20;99.90;;;;;;5071767;28;20556;-77
2022/04/09 04:00:24;;;;;;;12.70;4.40;;;5.10;99.90;;;;;;5080718;28;20708;-76
2022/04/09 04:02:54;;;;;;;12.60;3.90;;;5.70;99.90;;;;;;5087780;28;20253;-77
2022/04/09 04:05:22;;;;;;;17.87;4.17;;;5.00;99.90;;;;;;5091205;28;20281;-77
2022/04/09 04:07:50;;;;;;;20.60;5.00;;;4.90;99.90;;;;;;5094035;28;20208;-77
2022/04/09 04:10:20;;;;;;;12.03;4.30;;;4.90;99.90;;;;;;5099310;28;20234;-76
2022/04/09 04:12:54;;;;;;;11.40;3.27;;;4.80;99.90;;;;;;5079186;28;20215;-77
2022/04/09 04:15:27;;;;;;;8.10;3.77;;;4.70;99.90;;;;;;5068339;28;20678;-77
2022/04/09 04:17:55;;;;;;;16.57;4.60;;;4.70;99.90;;;;;;5087845;28;20222;-77
2022/04/09 04:20:25;;;;;;;16.33;4.73;;;4.60;99.90;;;;;;5087138;28;20231;-77
2022/04/09 04:22:55;;;;;;;15.03;4.90;;;4.50;99.90;;;;;;5087118;28;20283;-76
2022/04/09 04:25:24;;;;;;;13.40;4.00;;;4.60;99.90;;;;;;5073067;28;20217;-77
2022/04/09 04:27:52;;;;;;;17.53;5.00;;;4.50;99.90;;;;;;5086324;28;20216;-76
2022/04/09 04:30:21;;;;;;;14.50;5.13;;;4.60;99.90;;;;;;5081759;28;20318;-77
2022/04/09 04:32:50;;;;;;;10.47;4.20;;;4.60;99.90;;;;;;5096526;28;20212;-76
2022/04/09 04:35:21;;;;;;;16.77;4.70;;;4.80;99.90;;;;;;5097920;28;20203;-76
2022/04/09 04:37:49;;;;;;;14.50;4.50;;;4.90;99.90;;;;;;5094426;28;20207;-76
2022/04/09 04:40:19;;;;;;;11.47;4.50;;;5.00;99.90;;;;;;5087094;28;20299;-77
2022/04/09 04:42:54;;;;;;;14.00;4.27;;;4.90;99.90;;;;;;5090841;28;20226;-77
2022/04/09 04:45:24;;;;;;;13.40;4.67;;;5.00;99.90;;;;;;5095666;28;20621;-76
2022/04/09 04:47:54;;;;;;;19.27;5.90;;;5.10;99.90;;;;;;5085563;28;20268;-77
2022/04/09 04:50:25;;;;;;;11.00;3.70;;;4.90;99.90;;;;;;5084380;28;20279;-76
2022/04/09 04:52:53;;;;;;;20.27;4.57;;;5.10;99.90;;;;;;5085745;28;20295;-75
2022/04/09 04:55:22;;;;;;;13.07;4.57;;;5.20;99.90;;;;;;5080661;28;20208;-76
2022/04/09 04:57:54;;;;;;;13.10;4.60;;;5.30;99.90;;;;;;5074456;28;20218;-76
2022/04/09 05:00:31;;;;;;;15.57;4.83;;;5.30;99.90;;;;;;5067256;28;20311;-76
2022/04/09 05:03:03;;;;;;;19.93;4.63;;;5.40;99.90;;;;;;5073645;28;20332;-77
2022/04/09 05:05:32;;;;;;;14.53;4.80;;;5.40;99.90;;;;;;5067437;28;20239;-77
2022/04/09 05:07:59;;;;;;;15.53;4.57;;;5.40;99.90;;;;;;5066439;28;20635;-76
2022/04/09 05:10:27;;;;;;;17.63;4.93;;;5.50;99.90;;;;;;5065091;28;20269;-77
2022/04/09 05:12:59;;;;;;;16.20;4.63;;;5.60;99.90;;;;;;5074011;28;20219;-77
2022/04/09 05:15:27;;;;;;;15.03;4.33;;;5.50;99.90;;;;;;5085013;28;20215;-77
2022/04/09 05:17:54;;;;;;;12.10;3.90;;;5.60;99.90;;;;;;5085927;28;20210;-76
2022/04/09 05:20:22;;;;;;;12.47;4.17;;;5.70;99.90;;;;;;5084892;28;20224;-76
2022/04/09 05:22:52;;;;;;;15.60;4.03;;;5.70;99.90;;;;;;5084893;28;20214;-77
2022/04/09 05:25:20;;;;;;;13.00;3.63;;;5.70;99.90;;;;;;5085711;28;20235;-77
2022/04/09 05:27:49;;;;;;;20.03;4.60;;;5.80;99.90;;;;;;5079095;28;20202;-76
2022/04/09 05:30:34;;;;;;;18.57;4.67;;;5.80;99.90;;;;;;5083541;28;20609;-76
2022/04/09 05:33:02;;;;;;;20.67;3.57;;;5.80;99.90;;;;;;5083084;28;20298;-76
2022/04/09 05:35:30;;;;;;;20.27;5.23;;;5.90;99.90;;;;;;5104003;28;20212;-77
2022/04/09 05:37:58;;;;;;;14.80;4.50;;;5.90;99.90;;;;;;5105811;28;20206;-76
2022/04/09 05:40:30;;;;;;;11.97;4.50;;;5.90;99.90;;;;;;5105885;28;20709;-76
2022/04/09 05:43:02;;;;;;;13.67;4.17;;;5.90;99.90;;;;;;5088775;28;20631;-78
2022/04/09 05:45:29;;;;;;;20.70;5.50;;;6.00;99.90;;;;;;5066024;28;20220;-77
2022/04/09 05:47:57;;;;;;;12.57;4.27;;;6.10;99.90;;;;;;5069621;28;20280;-78
2022/04/09 05:50:34;;;;;;;16.00;4.47;;;6.00;99.90;;;;;;5068816;28;20655;-76
2022/04/09 05:53:02;;;;;;;17.17;4.30;;;6.00;99.90;;;;;;5070903;28;20287;-76
2022/04/09 05:55:29;;;;;;;17.13;4.33;;;6.00;99.90;;;;;;5073776;28;20323;-77
2022/04/09 05:57:56;;;;;;;14.23;3.93;;;5.90;99.90;;;;;;5069673;28;20209;-77
2022/04/09 06:00:24;;;;;;;19.47;4.17;;;5.90;99.90;;;;;;5080814;28;20238;-77
2022/04/09 06:03:03;;;;;;;11.90;4.00;;;6.10;99.90;;;;;;5082250;28;20267;-76
2022/04/09 06:05:35;;;;;;;11.77;4.47;;;6.10;99.90;;;;;;5068192;28;20637;-76
2022/04/09 06:08:07;;;;;;;11.93;3.53;;;6.40;99.90;;;;;;5069200;28;20205;-77
2022/04/09 06:10:34;;;;;;;18.77;3.73;;;6.40;99.90;;;;;;5069731;28;20604;-77
2022/04/09 06:13:01;;;;;;;16.57;4.20;;;6.50;99.90;;;;;;5087577;28;20229;-77
2022/04/09 06:15:28;;;;;;;14.23;4.10;;;6.50;99.90;;;;;;5089720;28;20212;-78
2022/04/09 06:18:07;;;;;;;11.97;3.90;;;6.50;99.90;;;;;;5095282;28;20214;-76
2022/04/09 06:20:34;;;;;;;13.07;3.73;;;6.60;99.90;;;;;;5085156;28;20223;-77
2022/04/09 06:23:05;;;;;;;22.20;4.60;;;7.30;99.90;;;;;;5099904;28;20332;-78
2022/04/09 06:25:33;;;;;;;11.90;3.37;;;6.70;99.90;;;;;;5100955;28;20235;-78
2022/04/09 06:28:01;;;;;;;13.70;4.17;;;6.60;99.90;;;;;;5086355;28;20226;-76
2022/04/09 06:30:30;;;;;;;17.93;4.57;;;7.40;99.90;;;;;;5073805;28;20224;-78
2022/04/09 06:33:04;;;;;;;11.53;4.30;;;;;;;;;;5077748;28;20224;-76
2022/04/09 06:35:34;;;;;;;15.90;3.23;;;8.40;99.90;;;;;;5083096;28;20212;-77
2022/04/09 06:38:07;;;;;;;15.37;4.37;;;9.10;99.90;;;;;;5107756;28;20224;-77
2022/04/09 06:40:34;;;;;;;11.53;4.20;;;9.10;99.90;;;;;;5102762;28;20235;-78
2022/04/09 06:43:03;;;;;;;12.97;4.53;;;9.30;99.90;;;;;;5085267;28;20237;-76
2022/04/09 06:45:39;;;;;;;22.20;4.57;;;9.20;99.90;;;;;;5090905;28;20680;-76
2022/04/09 06:48:39;;;;;;;17.60;4.13;;;9.70;99.90;;;;;;5085032;28;20283;-77
2022/04/09 06:51:26;;;;;;;15.43;4.27;;;8.70;99.90;;;;;;5099818;28;20245;-78
2022/04/09 06:54:00;;;;;;;21.97;4.33;;;8.70;99.90;;;;;;5090850;28;20218;-77
2022/04/09 06:56:27;;;;;;;15.27;4.13;;;8.60;99.90;;;;;;5097393;28;20234;-77
2022/04/09 06:58:55;;;;;;;11.27;3.90;;;8.50;99.90;;;;;;5091652;28;20208;-78
2022/04/09 07:01:22;;;;;;;15.20;3.87;;;8.40;99.90;;;;;;5096755;28;20242;-76
2022/04/09 07:03:50;;;;;;;13.03;3.77;;;8.60;99.90;;;;;;5109233;28;20278;-77
2022/04/09 07:06:17;;;;;;;12.37;3.80;;;8.80;99.90;;;;;;5096620;28;20340;-78
2022/04/09 07:08:46;;;;;;;18.03;4.03;;;9.20;99.90;;;;;;5093807;28;20581;-76
2022/04/09 07:11:13;;;;;;;8.13;3.47;;;9.40;99.90;;;;;;5101036;28;20678;-77
2022/04/09 07:13:41;;;;;;;17.13;3.97;;;9.60;99.90;;;;;;5093978;28;20217;-79
2022/04/09 07:16:08;;;;;;;10.47;3.60;;;9.50;99.90;;;;;;5095434;28;20698;-80
2022/04/09 07:18:35;;;;;;;11.83;3.83;;;9.40;99.90;;;;;;5097218;28;20836;-77
2022/04/09 07:21:02;;;;;;;13.63;4.00;;;9.30;99.90;;;;;;5088404;28;20231;-76
2022/04/09 07:23:29;;;;;;;14.27;3.73;;;9.80;99.90;;;;;;5088805;28;20211;-77
2022/04/09 07:25:57;;;;;;;11.23;4.17;;;10.10;99.90;;;;;;5088667;28;20210;-77
2022/04/09 07:28:24;;;;;;;17.10;4.30;;;10.10;99.90;;;;;;5088639;28;20668;-75
2022/04/09 07:30:51;;;;;;;11.50;3.57;;;10.20;99.90;;;;;;5082807;28;20239;-76
2022/04/09 07:33:18;;;;;;;10.23;3.50;;;10.30;99.90;;;;;;5087085;28;20221;-76
2022/04/09 07:35:45;;;;;;;13.33;3.23;;;9.90;99.90;;;;;;5088700;28;20674;-77
2022/04/09 07:38:12;;;;;;;13.27;3.73;;;9.50;99.90;;;;;;5087408;28;20252;-78
2022/04/09 07:40:39;;;;;;;16.93;4.77;;;9.10;99.90;;;;;;5089786;28;20292;-77
2022/04/09 07:43:07;;;;;;;8.90;3.37;;;8.80;99.90;;;;;;5077312;28;20219;-78
2022/04/09 07:45:34;;;;;;;9.53;3.20;;;8.70;99.90;;;;;;5088856;28;20211;-78
2022/04/09 07:48:02;;;;;;;11.30;4.47;;;9.90;99.90;;;;;;5094428;28;20196;-77
2022/04/09 07:50:29;;;;;;;14.53;4.70;;;10.80;99.90;;;;;;5109727;28;20211;-78
2022/04/09 07:52:57;;;;;;;9.93;3.43;;;10.40;99.90;;;;;;5110181;28;20191;-78
2022/04/09 07:55:24;;;;;;;13.70;3.20;;;10.90;99.90;;;;;;5109805;28;20246;-78
2022/04/09 07:57:52;;;;;;;15.53;4.27;;;11.30;99.90;;;;;;5093854;28;20214;-77
2022/04/09 08:00:22;;;;;;;12.27;3.73;;;11.90;99.90;;;;;;5072426;28;20305;-78
2022/04/09 08:02:48;;;;;;;11.43;3.97;;;12.60;99.90;;;;;;5067764;28;20255;-78
2022/04/09 08:05:18;;;;;;;10.90;3.80;;;13.20;99.90;;;;;;5071961;28;20674;-78
2022/04/09 08:07:45;;;;;;;12.63;3.50;;;14.10;99.90;;;;;;5068097;28;20212;-80
2022/04/09 08:10:13;;;;;;;11.60;3.70;;;14.10;99.90;;;;;;5077023;22;20264;-86
2022/04/09 08:12:41;;;;;;;10.37;3.83;;;14.00;99.90;;;;;;5012847;28;20199;-86
2022/04/09 08:15:09;;;;;;;9.13;2.90;;;13.60;99.90;;;;;;5002236;28;20242;-85
2022/04/09 08:17:40;;;;;;;11.60;3.30;;;13.70;99.90;;;;;;4995268;28;20211;-85
2022/04/09 08:20:09;;;;;;;12.77;3.60;;;13.80;99.90;;;;;;4995333;28;20320;-85
2022/04/09 08:22:36;;;;;;;9.00;3.20;;;14.00;99.90;;;;;;4993268;28;20251;-88
2022/04/09 08:25:05;;;;;;;8.80;3.27;;;14.30;99.90;;;;;;5001636;28;20228;-87
2022/04/09 08:27:32;;;;;;;13.70;3.30;;;14.90;99.90;;;;;;5007627;28;20210;-86
2022/04/09 08:29:59;;;;;;;8.03;3.33;;;15.40;99.90;;;;;;5014387;28;20702;-86
2022/04/09 08:32:27;;;;;;;9.07;3.17;;;15.70;99.90;;;;;;5015131;28;20203;-88
2022/04/09 08:34:55;;;;;;;6.67;2.30;;;16.40;99.90;;;;;;5027173;28;20223;-88
2022/04/09 08:37:23;;;;;;;8.37;2.70;;;16.70;99.90;;;;;;5003914;28;20257;-87
2022/04/09 08:39:50;;;;;;;6.63;2.67;;;17.90;99.90;;;;;;4995091;28;20373;-87
2022/04/09 08:42:18;;;;;;;4.73;2.10;;;16.00;99.90;;;;;;4996737;28;20693;-86
2022/04/09 08:44:49;;;;;;;6.63;2.20;;;15.60;99.90;;;;;;5011200;28;20231;-85
2022/04/09 08:47:16;;;;;;;5.53;2.40;;;15.50;99.90;;;;;;5005171;28;20306;-87
2022/04/09 08:49:46;;;;;;;6.50;2.57;;;14.60;99.90;;;;;;5009659;28;20240;-87
2022/04/09 08:52:15;;;;;;;4.33;1.83;;;14.40;99.90;;;;;;4992794;28;20232;-87
2022/04/09 08:54:42;;;;;;;5.63;2.20;;;13.70;99.90;;;;;;5010291;28;20231;-87
2022/04/09 08:57:10;;;;;;;4.20;2.00;;;14.40;99.90;;;;;;4992923;28;20247;-85
2022/04/09 08:59:39;;;;;;;5.23;2.30;;;14.70;99.90;;;;;;5001404;28;20203;-86
2022/04/09 09:02:06;;;;;;;4.73;2.00;;;14.80;99.90;;;;;;5009437;28;20227;-86
2022/04/09 09:04:34;;;;;;;5.60;1.97;;;15.10;99.90;;;;;;4994235;28;20235;-86
2022/04/09 09:07:20;;;;;;;5.13;2.10;;;14.90;99.90;;;;;;4996051;28;20219;-86
2022/04/09 09:09:52;;;;;;;8.20;2.60;;;14.40;99.90;;;;;;4997838;28;20366;-86
2022/04/09 09:12:43;;;;;;;5.73;2.23;;;14.60;99.90;;;;;;4996985;28;20277;-85
2022/04/09 09:15:15;;;;;;;4.00;2.10;;;14.10;99.90;;;;;;5012764;28;20244;-86
2022/04/09 09:17:50;;;;;;;5.40;2.27;;;14.10;99.90;;;;;;5009698;28;20269;-85
2022/04/09 09:20:26;;;;;;;5.97;2.30;;;14.40;99.90;;;;;;5008599;28;20281;-86
2022/04/09 09:22:59;;;;;;;5.20;2.03;;;14.20;99.90;;;;;;5010030;28;20221;-83
2022/04/09 09:25:55;;;;;;;6.60;2.70;;;13.70;99.90;;;;;;5002569;28;20226;-84
2022/04/09 09:28:42;;;;;;;6.77;2.33;;;13.40;99.90;;;;;;4996910;28;20282;-84
2022/04/09 09:31:25;;;;;;;7.57;2.40;;;13.40;99.90;;;;;;5010465;28;20353;-82
2022/04/09 09:34:11;;;;;;;5.27;2.40;;;13.20;99.90;;;;;;4997371;28;20252;-84
2022/04/09 09:36:51;;;;;;;6.23;2.27;;;12.90;99.90;;;;;;4994624;28;20242;-84
2022/04/09 09:39:33;;;;;;;7.63;2.60;;;12.70;99.90;;;;;;4991498;28;20759;-84
2022/04/09 09:42:03;;;;;;;6.70;2.80;;;12.70;99.90;;;;;;4997296;28;20309;-84
2022/04/09 09:44:42;;;;;;;7.93;2.70;;;12.70;99.90;;;;;;5002819;28;20235;-84
2022/04/09 09:47:20;;;;;;;6.90;2.37;;;13.10;99.90;;;;;;5000844;28;20230;-84
2022/04/09 09:49:58;;;;;;;5.73;2.97;;;13.30;99.90;;;;;;4997844;28;20203;-85
2022/04/09 09:52:34;;;;;;;6.53;2.80;;;13.10;99.90;;;;;;4999051;28;20193;-85
2022/04/09 09:55:10;;;;;;;11.73;3.40;;;13.20;99.90;;;;;;5000419;28;20236;-85
2022/04/09 09:57:41;;;;;;;8.07;2.40;;;13.20;99.90;;;;;;4992928;28;20293;-84
2022/04/09 10:00:11;;;;;;;6.97;2.77;;;13.50;99.90;;;;;;4989733;28;20238;-85
2022/04/09 10:02:39;;;;;;;9.80;3.30;;;13.10;99.90;;;;;;4987946;28;20224;-86
2022/04/09 10:05:08;;;;;;;11.17;3.27;;;12.90;99.90;;;;;;4996453;28;20227;-85
2022/04/09 10:07:36;;;;;;;7.13;3.07;;;12.50;99.90;;;;;;4998727;28;20306;-84
2022/04/09 10:10:05;;;;;;;11.07;3.20;;;11.90;99.90;;;;;;5012650;28;20250;-86
2022/04/09 10:12:40;;;;;;;9.17;3.00;;;11.80;99.90;;;;;;5015006;28;20272;-87
2022/04/09 10:15:13;;;;;;;9.40;2.43;;;11.60;99.90;;;;;;5016170;28;20293;-89
2022/04/09 10:17:41;;;;;;;8.47;2.47;;;11.60;99.90;;;;;;5017137;28;20239;-85
2022/04/09 10:20:10;;;;;;;7.07;2.90;;;11.60;99.90;;;;;;5014352;28;20196;-86
2022/04/09 10:22:40;;;;;;;5.67;2.60;;;11.60;99.90;;;;;;5011741;28;20231;-86
2022/04/09 10:25:09;;;;;;;6.63;2.30;;;11.50;99.90;;;;;;5008004;28;20692;-84
2022/04/09 10:27:39;;;;;;;5.80;2.20;;;11.20;99.90;;;;;;4995928;28;20203;-85
2022/04/09 10:30:19;;;;;;;6.77;2.53;;;11.00;99.90;;;;;;5001226;28;20261;-84
2022/04/09 10:32:48;;;;;;;7.83;2.70;;;10.20;99.90;;;;;;4989130;28;20203;-84
2022/04/09 10:35:38;;;;;;;9.17;2.70;;;11.00;99.90;;;;;;5015337;28;20604;-86
2022/04/09 10:38:18;;;;;;;9.90;2.30;;;9.90;99.90;;;;;;4999242;28;20274;-84
2022/04/09 10:41:23;;;;;;;5.80;2.43;;;9.50;99.90;;;;;;4998864;28;20203;-84
2022/04/09 10:43:52;;;;;;;4.30;2.30;;;9.40;99.90;;;;;;5000706;28;20274;-83
2022/04/09 10:46:29;;;;;;;7.00;2.30;;;9.40;99.90;;;;;;4995871;28;20255;-83
2022/04/09 10:49:19;;;;;;;4.17;2.03;;;9.50;99.90;;;;;;5011659;28;20214;-83
2022/04/09 10:52:06;;;;;;;4.33;1.97;;;9.80;99.90;;;;;;4996493;28;20207;-83
2022/04/09 10:54:34;;;;;;;6.87;2.23;;;10.30;99.90;;;;;;5010811;28;20289;-86
2022/04/09 10:57:08;;;;;;;6.40;2.27;;;10.30;99.90;;;;;;4995688;28;20215;-83
2022/04/09 10:59:38;;;;;;;4.97;2.20;;;10.50;99.90;;;;;;4998551;28;20195;-84
2022/04/09 11:02:06;;;;;;;5.17;2.23;;;10.80;99.90;;;;;;5028144;28;20199;-87
2022/04/09 11:04:44;;;;;;;4.30;2.10;;;11.30;99.90;;;;;;5028285;28;20203;-88
2022/04/09 11:07:16;;;;;;;5.80;2.10;;;11.30;99.90;;;;;;5013395;28;20229;-87
2022/04/09 11:09:51;;;;;;;6.07;2.20;;;11.70;99.90;;;;;;5011030;28;20204;-84
2022/04/09 11:12:20;;;;;;;4.13;1.90;;;12.20;99.90;;;;;;5014941;28;20206;-84
2022/04/09 11:14:51;;;;;;;2.97;1.50;;;12.90;99.90;;;;;;5012938;28;20265;-84
2022/04/09 11:17:19;;;;;;;3.10;1.97;;;13.40;99.90;;;;;;5018670;28;20280;-86
2022/04/09 11:19:49;;;;;;;2.90;1.80;;;13.70;99.90;;;;;;5013467;28;20189;-88
2022/04/09 11:22:54;;;;;;;6.23;2.47;;;13.90;99.90;;;;;;5002625;28;20320;-85
2022/04/09 11:25:23;;;;;;;4.57;1.67;;;13.80;99.90;;;;;;5007786;28;20257;-84
2022/04/09 11:27:51;;;;;;;6.23;1.90;;;13.40;99.90;;;;;;4997922;28;20231;-84
2022/04/09 11:30:21;;;;;;;4.13;1.87;;;13.20;99.90;;;;;;4994259;28;20219;-84
2022/04/09 11:32:48;;;;;;;4.00;1.80;;;13.20;99.90;;;;;;4999438;28;20691;-86
2022/04/09 11:35:24;;;;;;;5.13;1.80;;;13.30;99.90;;;;;;4996006;28;20233;-85
2022/04/09 11:37:53;;;;;;;5.80;2.07;;;13.50;99.90;;;;;;4999894;28;20180;-85
2022/04/09 11:40:21;;;;;;;2.80;1.57;;;13.50;99.90;;;;;;4999791;28;20235;-84
2022/04/09 11:42:52;;;;;;;4.10;2.27;;;13.40;99.90;;;;;;4999903;28;20329;-83
2022/04/09 11:45:23;;;;;;;5.80;2.17;;;13.20;99.90;;;;;;5004795;28;20241;-86
2022/04/09 11:48:00;;;;;;;5.60;1.90;;;12.90;99.90;;;;;;4997813;28;20252;-85
2022/04/09 11:50:31;;;;;;;5.43;2.17;;;12.90;99.90;;;;;;5011270;28;20245;-83
2022/04/09 11:53:09;;;;;;;5.20;2.20;;;13.20;99.90;;;;;;5011966;28;20194;-84
2022/04/09 11:55:35;;;;;;;4.70;2.03;;;12.40;99.90;;;;;;5013144;28;20277;-85
2022/04/09 11:58:02;;;;;;;3.60;1.97;;;12.20;99.90;;;;;;5000888;28;20551;-84
2022/04/09 12:00:31;;;;;;;4.53;2.00;;;12.40;99.90;;;;;;4978809;28;20199;-85
2022/04/09 12:03:02;;;;;;;4.37;2.10;;;12.70;99.90;;;;;;4992187;28;20317;-87
2022/04/09 12:05:35;;;;;;;4.80;2.07;;;12.70;99.90;;;;;;4994216;28;20333;-84
2022/04/09 12:08:02;;;;;;;4.93;2.00;;;12.50;99.90;;;;;;4997874;28;20215;-86
2022/04/09 12:10:30;;;;;;;7.40;2.33;;;12.40;99.90;;;;;;4993790;28;20222;-84
2022/04/09 12:12:58;;;;;;;4.37;2.17;;;12.30;99.90;;;;;;4997395;28;20207;-83
2022/04/09 12:15:32;;;;;;;5.07;2.30;;;12.20;99.90;;;;;;4990724;28;20689;-82
2022/04/09 12:17:59;;;;;;;8.80;2.20;;;12.00;99.90;;;;;;4986799;28;20278;-83
2022/04/09 12:20:41;;;;;;;5.33;1.80;;;11.70;99.90;;;;;;4996090;28;20591;-83
2022/04/09 12:23:08;;;;;;;5.73;2.10;;;11.50;99.90;;;;;;5000974;28;20253;-85
2022/04/09 12:25:39;;;;;;;4.50;1.90;;;11.30;99.90;;;;;;5007178;28;20241;-85
2022/04/09 12:28:22;;;;;;;4.33;2.37;;;11.20;99.90;;;;;;5006456;28;20199;-83
2022/04/09 12:30:52;;;;;;;6.47;2.10;;;11.20;99.90;;;;;;4993625;28;20218;-83
2022/04/09 12:33:20;;;;;;;5.47;2.20;;;11.60;99.90;;;;;;4992163;28;20287;-83
2022/04/09 12:35:49;;;;;;;5.83;2.07;;;12.10;99.90;;;;;;4992262;28;20242;-82
2022/04/09 12:38:31;;;;;;;5.80;2.20;;;12.40;99.90;;;;;;5007583;28;20202;-84
2022/04/09 12:41:01;;;;;;;5.77;2.20;;;12.80;99.90;;;;;;4995155;28;20210;-86
2022/04/09 12:43:35;;;;;;;5.70;2.20;;;13.40;99.90;;;;;;4996630;28;20227;-83
2022/04/09 12:46:05;;;;;;;4.07;1.90;;;13.80;99.90;;;;;;4992892;28;20232;-84
2022/04/09 12:48:44;;;;;;;6.13;2.30;;;14.20;99.90;;;;;;4992271;28;20265;-83
2022/04/09 12:51:13;;;;;;;5.50;2.30;;;14.70;99.90;;;;;;4988769;28;20220;-85
2022/04/09 12:53:41;;;;;;;5.97;2.40;;;15.10;99.90;;;;;;5001599;28;20217;-85
2022/04/09 12:56:09;;;;;;;6.37;2.43;;;15.20;99.90;;;;;;4991943;28;20224;-84
2022/04/09 12:58:36;;;;;;;7.87;2.17;;;15.00;99.90;;;;;;4990589;28;20235;-84
2022/04/09 13:01:05;;;;;;;7.40;2.93;;;14.70;99.90;;;;;;4988207;28;20275;-84
2022/04/09 13:03:34;;;;;;;4.13;2.17;;;15.00;99.90;;;;;;4998158;28;20215;-83
2022/04/09 13:06:03;;;;;;;6.10;2.17;;;14.40;99.90;;;;;;4993584;28;20231;-84